Airfield :
LOGIN :

Register | Disclaimer

   EN    FR    IT 

 










Legend :    VFR   Marginal VFR   IFR   Intensive IFR   Very Intensive IFR
Visi :
Ceiling :
>= 8 km
>= 3000ft
5 to 8 km
1000 to 3000 ft
1500m to 5 km
500 to 1000 ft
800 to 1500m
200 to 500 ft
< 800m
< 200 ft
Symbols :   Thunderstorms  Fog  Heavy snow  Heavy precipitations  Wind > 20 kt
SIGMETs :     Misc.  Thunderstorms  Icing  Turbulence  Mountain Waves  Volcanic Ashes







- Airport Elevation : 622 ft
- IATA code : BRS
- Download approach charts


EGGD - Bristol Int.

CURRENT METAR :
  • 180720Z AUTO 07011KT 6000 BKN004 OVC010 09/09 Q1011

EXPIRED METARs :
  • 180650Z 07011KT 6000 FEW002 SCT004 BKN011 09/09 Q1011
  • 180620Z 07011KT 3000 -DZ BR SCT002 BKN004 09/09 Q1012
  • 180550Z 07009KT 2000 -DZ BR BKN002 09/09 Q1012
  • 180520Z AUTO 07010KT 3400 BR OVC002 09/09 Q1012
  • 180450Z AUTO 07006KT 2900 BR OVC002 09/09 Q1012

TAF AMD TAF EGGD
Valid from the 18 at 06:00 until the 19 at 06:00 UTC


180634Z 1806/1906 07008KT 6000 BKN010
TEMPO 1806/1812 3000 DZ BR BKN002
BECMG 1812/1815 2000 BR SCT001 BKN002
TEMPO 1814/1906 0200 FG BKN001
PROB30
TEMPO 1822/1906 8000 NSW FEW003
ATIS : +44 1275 473 666
No reported NOTAMs for that airfield.



MET'MAP, your aeronautical weather chart ! - Copyright ORBIFLY December 2007 - Disclaimer

ORBIFLY MET'MAP TEAM :

Programming & Development : Alexandra Zaïnal
Concept & Development : Baudouin d'Aumeries
Co-Development & Prog : Marc-Olivier Méhu
Technical & hardware support : Manuel Goepfert

Contact : metmap@orbifly.com




SOURCES & CREDITS :

   NOAA